sensor_id;sensor_type;location;lat;lon;timestamp;temperature;humidity
25050;DHT22;13046;49.814;9.918;2022-07-11T08:57:33;18.00;99.90
25050;DHT22;13046;49.814;9.918;2022-07-11T08:59:59;19.90;99.90
25050;DHT22;13046;49.814;9.918;2022-07-11T09:02:26;20.10;99.90
25050;DHT22;13046;49.814;9.918;2022-07-11T09:04:52;20.30;99.90
25050;DHT22;13046;49.814;9.918;2022-07-11T09:07:18;20.60;99.90
25050;DHT22;13046;49.814;9.918;2022-07-11T09:09:43;20.40;99.90
25050;DHT22;13046;49.814;9.918;2022-07-11T09:12:12;20.40;99.90
25050;DHT22;13046;49.814;9.918;2022-07-11T09:14:38;20.60;99.90
25050;DHT22;13046;49.814;9.918;2022-07-11T09:17:05;20.80;99.90
25050;DHT22;13046;49.814;9.918;2022-07-11T09:19:33;20.60;99.90
25050;DHT22;13046;49.814;9.918;2022-07-11T09:25:05;20.30;99.90
25050;DHT22;13046;49.814;9.918;2022-07-11T09:28:06;20.00;99.90
25050;DHT22;13046;49.814;9.918;2022-07-11T09:50:23;20.00;99.90
25050;DHT22;13046;49.814;9.918;2022-07-11T10:15:01;19.90;99.90
25050;DHT22;13046;49.814;9.918;2022-07-11T10:38:08;19.80;99.90
25050;DHT22;13046;49.814;9.918;2022-07-11T10:43:07;18.00;99.90
25050;DHT22;13046;49.814;9.918;2022-07-11T10:45:58;18.10;99.90
25050;DHT22;13046;49.814;9.918;2022-07-11T10:48:25;18.10;99.90
25050;DHT22;13046;49.814;9.918;2022-07-11T11:02:03;18.60;99.90
25050;DHT22;13046;49.814;9.918;2022-07-11T11:23:10;19.20;99.90
25050;DHT22;13046;49.814;9.918;2022-07-11T11:25:36;21.30;99.90
25050;DHT22;13046;49.814;9.918;2022-07-11T11:28:03;21.30;99.90
25050;DHT22;13046;49.814;9.918;2022-07-11T11:30:30;21.30;99.90
25050;DHT22;13046;49.814;9.918;2022-07-11T11:32:56;21.30;99.90
25050;DHT22;13046;49.814;9.918;2022-07-11T11:35:21;21.30;99.90
25050;DHT22;13046;49.814;9.918;2022-07-11T11:37:48;21.40;99.90
25050;DHT22;13046;49.814;9.918;2022-07-11T11:40:14;21.30;99.90
25050;DHT22;13046;49.814;9.918;2022-07-11T11:42:40;21.50;99.90
25050;DHT22;13046;49.814;9.918;2022-07-11T11:45:07;21.50;99.90
25050;DHT22;13046;49.814;9.918;2022-07-11T11:47:35;21.60;99.90
25050;DHT22;13046;49.814;9.918;2022-07-11T11:50:01;22.00;99.90
25050;DHT22;13046;49.814;9.918;2022-07-11T12:07:13;22.60;99.90
25050;DHT22;13046;49.814;9.918;2022-07-11T12:09:39;22.30;99.90
25050;DHT22;13046;49.814;9.918;2022-07-11T12:12:24;22.40;99.90
25050;DHT22;13046;49.814;9.918;2022-07-11T12:15:29;22.60;99.90
25050;DHT22;13046;49.814;9.918;2022-07-11T12:25:33;22.90;99.90
25050;DHT22;13046;49.814;9.918;2022-07-11T12:27:58;23.00;99.90
25050;DHT22;13046;49.814;9.918;2022-07-11T12:35:33;23.00;99.90
25050;DHT22;13046;49.814;9.918;2022-07-11T12:37:59;22.50;99.90
25050;DHT22;13046;49.814;9.918;2022-07-11T12:40:24;22.50;99.90
25050;DHT22;13046;49.814;9.918;2022-07-11T12:42:50;22.50;99.90
25050;DHT22;13046;49.814;9.918;2022-07-11T12:45:16;22.70;99.90
25050;DHT22;13046;49.814;9.918;2022-07-11T12:47:50;22.60;99.90
25050;DHT22;13046;49.814;9.918;2022-07-11T12:50:28;23.00;99.90
25050;DHT22;13046;49.814;9.918;2022-07-11T12:52:56;23.00;99.90
25050;DHT22;13046;49.814;9.918;2022-07-11T12:55:24;23.30;99.90
25050;DHT22;13046;49.814;9.918;2022-07-11T13:00:29;23.90;99.90
25050;DHT22;13046;49.814;9.918;2022-07-11T13:07:48;23.50;99.90
25050;DHT22;13046;49.814;9.918;2022-07-11T13:13:18;22.90;99.90
25050;DHT22;13046;49.814;9.918;2022-07-11T13:15:45;22.90;99.90
25050;DHT22;13046;49.814;9.918;2022-07-11T13:18:12;23.30;99.90
25050;DHT22;13046;49.814;9.918;2022-07-11T13:20:39;22.90;99.90
25050;DHT22;13046;49.814;9.918;2022-07-11T13:23:05;23.10;99.90
25050;DHT22;13046;49.814;9.918;2022-07-11T13:25:32;23.00;99.90
25050;DHT22;13046;49.814;9.918;2022-07-11T13:27:57;23.20;99.90
25050;DHT22;13046;49.814;9.918;2022-07-11T13:30:24;23.20;99.90
25050;DHT22;13046;49.814;9.918;2022-07-11T13:32:56;23.20;99.90
25050;DHT22;13046;49.814;9.918;2022-07-11T13:35:22;23.20;99.90
25050;DHT22;13046;49.814;9.918;2022-07-11T13:37:48;23.10;99.90
25050;DHT22;13046;49.814;9.918;2022-07-11T13:40:16;22.70;99.90
25050;DHT22;13046;49.814;9.918;2022-07-11T13:42:42;22.70;99.90
25050;DHT22;13046;49.814;9.918;2022-07-11T13:52:30;22.90;99.90
25050;DHT22;13046;49.814;9.918;2022-07-11T13:54:56;22.30;99.90
25050;DHT22;13046;49.814;9.918;2022-07-11T13:57:22;22.50;99.90
25050;DHT22;13046;49.814;9.918;2022-07-11T13:59:48;22.70;99.90
25050;DHT22;13046;49.814;9.918;2022-07-11T14:02:14;22.80;99.90
25050;DHT22;13046;49.814;9.918;2022-07-11T14:07:10;23.00;99.90
25050;DHT22;13046;49.814;9.918;2022-07-11T14:09:37;23.60;99.90
25050;DHT22;13046;49.814;9.918;2022-07-11T14:12:04;23.60;99.90
25050;DHT22;13046;49.814;9.918;2022-07-11T14:14:30;23.80;99.90
25050;DHT22;13046;49.814;9.918;2022-07-11T14:16:56;24.00;99.90
25050;DHT22;13046;49.814;9.918;2022-07-11T14:21:48;23.50;99.90
25050;DHT22;13046;49.814;9.918;2022-07-11T14:26:41;23.20;99.90
25050;DHT22;13046;49.814;9.918;2022-07-11T14:29:07;23.30;99.90
25050;DHT22;13046;49.814;9.918;2022-07-11T14:31:33;23.40;99.90
25050;DHT22;13046;49.814;9.918;2022-07-11T14:33:59;23.50;99.90
25050;DHT22;13046;49.814;9.918;2022-07-11T14:38:52;23.60;99.90
25050;DHT22;13046;49.814;9.918;2022-07-11T14:41:19;23.50;99.90
25050;DHT22;13046;49.814;9.918;2022-07-11T14:43:45;23.50;99.90
25050;DHT22;13046;49.814;9.918;2022-07-11T14:46:12;23.70;99.90
25050;DHT22;13046;49.814;9.918;2022-07-11T14:48:38;23.90;99.90
25050;DHT22;13046;49.814;9.918;2022-07-11T14:53:30;23.80;99.90
25050;DHT22;13046;49.814;9.918;2022-07-11T14:55:56;23.60;99.90
25050;DHT22;13046;49.814;9.918;2022-07-11T14:58:22;23.80;99.90
25050;DHT22;13046;49.814;9.918;2022-07-11T15:00:47;24.00;99.90
25050;DHT22;13046;49.814;9.918;2022-07-11T15:05:58;24.30;99.90
25050;DHT22;13046;49.814;9.918;2022-07-11T15:08:24;23.90;99.90
25050;DHT22;13046;49.814;9.918;2022-07-11T15:11:09;24.60;99.90
25050;DHT22;13046;49.814;9.918;2022-07-11T15:13:53;24.50;99.90
25050;DHT22;13046;49.814;9.918;2022-07-11T15:16:19;24.00;99.90
25050;DHT22;13046;49.814;9.918;2022-07-11T15:21:11;23.50;99.90
25050;DHT22;13046;49.814;9.918;2022-07-11T15:23:37;23.40;99.90
25050;DHT22;13046;49.814;9.918;2022-07-11T15:26:04;23.40;99.90
25050;DHT22;13046;49.814;9.918;2022-07-11T15:28:30;23.40;99.90
25050;DHT22;13046;49.814;9.918;2022-07-11T15:30:56;23.30;99.90
25050;DHT22;13046;49.814;9.918;2022-07-11T15:33:21;23.40;99.90
25050;DHT22;13046;49.814;9.918;2022-07-11T15:35:51;23.40;99.90
25050;DHT22;13046;49.814;9.918;2022-07-11T15:38:18;23.70;99.90
25050;DHT22;13046;49.814;9.918;2022-07-11T15:40:45;23.80;99.90
25050;DHT22;13046;49.814;9.918;2022-07-11T15:43:14;23.80;99.90
25050;DHT22;13046;49.814;9.918;2022-07-11T15:45:41;23.70;99.90
25050;DHT22;13046;49.814;9.918;2022-07-11T15:48:07;23.70;99.90
25050;DHT22;13046;49.814;9.918;2022-07-11T15:50:33;23.70;99.90
25050;DHT22;13046;49.814;9.918;2022-07-11T15:52:59;23.70;99.90
25050;DHT22;13046;49.814;9.918;2022-07-11T15:55:26;23.40;99.90
25050;DHT22;13046;49.814;9.918;2022-07-11T15:57:52;23.30;99.90
25050;DHT22;13046;49.814;9.918;2022-07-11T16:00:18;23.30;99.90
25050;DHT22;13046;49.814;9.918;2022-07-11T16:02:46;23.40;99.90
25050;DHT22;13046;49.814;9.918;2022-07-11T16:05:13;23.60;99.90
25050;DHT22;13046;49.814;9.918;2022-07-11T16:07:39;23.60;99.90
25050;DHT22;13046;49.814;9.918;2022-07-11T16:10:05;23.40;99.90
25050;DHT22;13046;49.814;9.918;2022-07-11T16:12:32;23.50;99.90
25050;DHT22;13046;49.814;9.918;2022-07-11T16:14:58;23.40;99.90
25050;DHT22;13046;49.814;9.918;2022-07-11T16:17:24;23.20;99.90
25050;DHT22;13046;49.814;9.918;2022-07-11T16:19:50;23.20;99.90
25050;DHT22;13046;49.814;9.918;2022-07-11T16:22:16;23.20;99.90
25050;DHT22;13046;49.814;9.918;2022-07-11T16:24:42;23.20;99.90
25050;DHT22;13046;49.814;9.918;2022-07-11T16:27:07;23.10;99.90
25050;DHT22;13046;49.814;9.918;2022-07-11T16:29:33;23.20;99.90
25050;DHT22;13046;49.814;9.918;2022-07-11T16:31:59;23.20;99.90
25050;DHT22;13046;49.814;9.918;2022-07-11T16:34:25;23.00;99.90
25050;DHT22;13046;49.814;9.918;2022-07-11T16:36:51;22.80;99.90
25050;DHT22;13046;49.814;9.918;2022-07-11T16:39:17;22.90;99.90
25050;DHT22;13046;49.814;9.918;2022-07-11T16:42:01;23.20;99.90
25050;DHT22;13046;49.814;9.918;2022-07-11T16:44:45;23.40;99.90
25050;DHT22;13046;49.814;9.918;2022-07-11T16:47:11;23.10;99.90
25050;DHT22;13046;49.814;9.918;2022-07-11T16:49:37;23.10;99.90
25050;DHT22;13046;49.814;9.918;2022-07-11T16:52:04;23.10;99.90
25050;DHT22;13046;49.814;9.918;2022-07-11T16:54:30;23.20;99.90
25050;DHT22;13046;49.814;9.918;2022-07-11T16:56:56;23.10;99.90
25050;DHT22;13046;49.814;9.918;2022-07-11T16:59:22;23.10;99.90
25050;DHT22;13046;49.814;9.918;2022-07-11T17:01:48;23.30;99.90
25050;DHT22;13046;49.814;9.918;2022-07-11T17:04:13;23.30;99.90
25050;DHT22;13046;49.814;9.918;2022-07-11T17:06:39;22.90;99.90
25050;DHT22;13046;49.814;9.918;2022-07-11T17:09:06;22.80;99.90
25050;DHT22;13046;49.814;9.918;2022-07-11T17:11:31;22.50;99.90
25050;DHT22;13046;49.814;9.918;2022-07-11T17:16:23;22.60;99.90
25050;DHT22;13046;49.814;9.918;2022-07-11T17:18:50;23.50;99.90
25050;DHT22;13046;49.814;9.918;2022-07-11T17:21:16;23.40;99.90
25050;DHT22;13046;49.814;9.918;2022-07-11T17:23:42;23.10;99.90
25050;DHT22;13046;49.814;9.918;2022-07-11T17:26:09;22.80;99.90
25050;DHT22;13046;49.814;9.918;2022-07-11T17:31:01;22.50;99.90
25050;DHT22;13046;49.814;9.918;2022-07-11T17:33:27;22.40;99.90
25050;DHT22;13046;49.814;9.918;2022-07-11T17:35:53;22.40;99.90
25050;DHT22;13046;49.814;9.918;2022-07-11T17:38:18;22.40;99.90
25050;DHT22;13046;49.814;9.918;2022-07-11T17:40:44;22.60;99.90
25050;DHT22;13046;49.814;9.918;2022-07-11T17:43:10;22.70;99.90
25050;DHT22;13046;49.814;9.918;2022-07-11T17:45:36;22.70;99.90
25050;DHT22;13046;49.814;9.918;2022-07-11T17:48:08;22.30;99.90
25050;DHT22;13046;49.814;9.918;2022-07-11T17:50:34;22.10;99.90
25050;DHT22;13046;49.814;9.918;2022-07-11T17:53:00;21.90;99.90
25050;DHT22;13046;49.814;9.918;2022-07-11T17:55:25;22.10;99.90
25050;DHT22;13046;49.814;9.918;2022-07-11T17:57:51;22.00;99.90
25050;DHT22;13046;49.814;9.918;2022-07-11T18:00:17;21.90;99.90
25050;DHT22;13046;49.814;9.918;2022-07-11T18:02:44;21.70;99.90
25050;DHT22;13046;49.814;9.918;2022-07-11T18:05:11;21.60;99.90
25050;DHT22;13046;49.814;9.918;2022-07-11T18:07:39;21.60;99.90
25050;DHT22;13046;49.814;9.918;2022-07-11T18:10:06;21.50;99.90
25050;DHT22;13046;49.814;9.918;2022-07-11T18:12:32;21.50;99.90
25050;DHT22;13046;49.814;9.918;2022-07-11T18:15:01;21.50;99.90
25050;DHT22;13046;49.814;9.918;2022-07-11T18:17:27;21.40;99.90
25050;DHT22;13046;49.814;9.918;2022-07-11T18:19:54;21.30;99.90
25050;DHT22;13046;49.814;9.918;2022-07-11T18:22:21;21.30;99.90
25050;DHT22;13046;49.814;9.918;2022-07-11T18:24:47;21.30;99.90
25050;DHT22;13046;49.814;9.918;2022-07-11T18:27:13;21.20;99.90
25050;DHT22;13046;49.814;9.918;2022-07-11T18:29:39;21.20;99.90
25050;DHT22;13046;49.814;9.918;2022-07-11T18:32:05;21.20;99.90
25050;DHT22;13046;49.814;9.918;2022-07-11T18:34:33;21.10;99.90
25050;DHT22;13046;49.814;9.918;2022-07-11T18:36:59;21.10;99.90
25050;DHT22;13046;49.814;9.918;2022-07-11T18:39:25;21.10;99.90
25050;DHT22;13046;49.814;9.918;2022-07-11T18:42:09;20.90;99.90
25050;DHT22;13046;49.814;9.918;2022-07-11T18:44:35;20.90;99.90
25050;DHT22;13046;49.814;9.918;2022-07-11T18:47:01;20.80;99.90
25050;DHT22;13046;49.814;9.918;2022-07-11T18:49:27;20.80;99.90
25050;DHT22;13046;49.814;9.918;2022-07-11T18:51:53;20.80;99.90
25050;DHT22;13046;49.814;9.918;2022-07-11T18:54:20;20.70;99.90
25050;DHT22;13046;49.814;9.918;2022-07-11T18:56:47;20.70;99.90
25050;DHT22;13046;49.814;9.918;2022-07-11T18:59:13;20.60;99.90
25050;DHT22;13046;49.814;9.918;2022-07-11T19:01:39;20.50;99.90
25050;DHT22;13046;49.814;9.918;2022-07-11T19:04:06;20.50;99.90
25050;DHT22;13046;49.814;9.918;2022-07-11T19:06:32;20.40;99.90
25050;DHT22;13046;49.814;9.918;2022-07-11T19:08:58;20.20;99.90
25050;DHT22;13046;49.814;9.918;2022-07-11T19:11:23;20.10;99.90
25050;DHT22;13046;49.814;9.918;2022-07-11T19:13:49;20.10;99.90
25050;DHT22;13046;49.814;9.918;2022-07-11T19:16:15;20.00;99.90
25050;DHT22;13046;49.814;9.918;2022-07-11T19:18:44;19.90;99.90
25050;DHT22;13046;49.814;9.918;2022-07-11T19:21:10;19.80;99.90
25050;DHT22;13046;49.814;9.918;2022-07-11T19:23:36;19.80;99.90
25050;DHT22;13046;49.814;9.918;2022-07-11T19:26:03;19.70;99.90
25050;DHT22;13046;49.814;9.918;2022-07-11T19:28:29;19.50;99.90
25050;DHT22;13046;49.814;9.918;2022-07-11T19:30:55;19.50;99.90
25050;DHT22;13046;49.814;9.918;2022-07-11T19:33:21;19.50;99.90
25050;DHT22;13046;49.814;9.918;2022-07-11T19:35:46;19.40;99.90
25050;DHT22;13046;49.814;9.918;2022-07-11T19:38:13;19.40;99.90
25050;DHT22;13046;49.814;9.918;2022-07-11T19:40:39;19.30;99.90
25050;DHT22;13046;49.814;9.918;2022-07-11T19:45:31;19.20;99.90
